Time;durP1;ratioP1;P1;durP2;ratioP2;P2;SDS_P1;SDS_P2;PMS_P1;PMS_P2;Temp;Humidity;BMP_temperature;BMP_pressure;BME280_temperature;BME280_humidity;BME280_pressure;Samples;Min_cycle;Max_cycle;Signal;HPM_P1;HPM_P2
2022/02/02 03:55:29;;;;;;;1.88;1.67;;;6.00;99.10;;;;;;4731307;30;20100;-83
2022/02/02 04:05:49;;;;;;;3.95;2.33;;;6.00;99.00;;;;;;4756867;30;20048;-83
2022/02/02 04:10:47;;;;;;;1.52;1.42;;;6.10;98.70;;;;;;4729577;30;20368;-82
2022/02/02 04:13:24;;;;;;;1.73;1.30;;;6.30;98.80;;;;;;4736035;30;20377;-82
2022/02/02 05:06:57;;;;;;;3.75;0.90;;;7.10;96.40;;;;;;4727956;30;20040;-83
2022/02/02 05:20:22;;;;;;;3.10;1.10;;;7.20;96.00;;;;;;4727699;30;20397;-84
2022/02/02 05:51:24;;;;;;;5.93;0.75;;;6.80;99.50;;;;;;4726997;30;20112;-83
2022/02/02 05:53:51;;;;;;;0.73;0.43;;;6.80;99.60;;;;;;4729264;30;20033;-85
2022/02/02 05:56:18;;;;;;;1.00;0.60;;;6.80;99.00;;;;;;4727133;30;20032;-84
2022/02/02 05:58:46;;;;;;;1.05;0.50;;;6.80;99.00;;;;;;4741322;30;20048;-84
2022/02/02 06:01:14;;;;;;;3.53;0.60;;;6.80;98.40;;;;;;4726904;30;20345;-84
2022/02/02 06:03:50;;;;;;;7.35;0.60;;;6.80;98.30;;;;;;4726842;30;20347;-84
2022/02/02 06:06:17;;;;;;;2.00;0.55;;;6.80;98.00;;;;;;4726862;30;20106;-84
2022/02/02 06:08:47;;;;;;;0.98;0.40;;;6.80;98.10;;;;;;4712410;30;20072;-85
2022/02/02 06:11:24;;;;;;;0.93;0.40;;;6.90;98.10;;;;;;4726440;30;20047;-84
2022/02/02 06:13:55;;;;;;;1.80;0.40;;;6.90;97.80;;;;;;4726673;30;20428;-84
2022/02/02 06:16:23;;;;;;;0.68;0.50;;;6.80;97.80;;;;;;4726943;30;20052;-84
2022/02/02 06:18:54;;;;;;;1.58;0.77;;;6.80;98.10;;;;;;4726613;30;20095;-84
2022/02/02 06:21:41;;;;;;;2.45;0.80;;;6.90;98.20;;;;;;4727304;30;20300;-84
2022/02/02 06:24:10;;;;;;;;;;;6.90;98.20;;;;;;4726976;30;20086;-83
2022/02/02 06:26:38;;;;;;;2.13;1.13;;;6.80;98.00;;;;;;4726400;30;19918;-83
2022/02/02 06:29:10;;;;;;;0.93;0.57;;;6.80;98.10;;;;;;4726207;30;20325;-83
2022/02/02 06:31:39;;;;;;;2.45;0.55;;;6.90;98.10;;;;;;4726182;30;20047;-83
2022/02/02 06:34:08;;;;;;;2.60;0.82;;;6.80;97.90;;;;;;4726314;30;20028;-83
2022/02/02 06:36:36;;;;;;;0.55;0.50;;;6.80;97.80;;;;;;4726361;30;20029;-83
2022/02/02 06:39:05;;;;;;;2.05;0.65;;;6.80;97.80;;;;;;4726459;30;20045;-83
2022/02/02 06:41:31;;;;;;;3.13;0.95;;;6.90;97.80;;;;;;4726236;30;20039;-83
2022/02/02 06:43:57;;;;;;;4.65;1.00;;;6.90;97.60;;;;;;4725835;30;20267;-83
2022/02/02 06:46:30;;;;;;;4.70;0.90;;;7.00;97.20;;;;;;4712015;30;20085;-83
2022/02/02 06:48:58;;;;;;;1.08;0.70;;;7.00;96.90;;;;;;4725404;30;20037;-83
2022/02/02 06:51:35;;;;;;;4.25;0.68;;;7.10;96.80;;;;;;4725459;30;20069;-83
2022/02/02 06:54:23;;;;;;;6.22;1.30;;;7.20;96.20;;;;;;4724946;30;20045;-83
2022/02/02 07:04:47;;;;;;;1.83;0.93;;;7.30;95.00;;;;;;4727315;30;20053;-83
2022/02/02 07:07:46;;;;;;;2.97;1.23;;;7.40;95.00;;;;;;4712932;30;20381;-82
2022/02/02 07:10:21;;;;;;;3.72;0.70;;;7.40;94.50;;;;;;4741903;30;20520;-83
2022/02/02 07:15:47;;;;;;;8.25;1.90;;;7.50;93.20;;;;;;4727248;30;20086;-82
2022/02/02 07:21:19;;;;;;;4.93;1.35;;;7.60;93.30;;;;;;4692463;30;20072;-83
2022/02/02 07:29:13;;;;;;;2.47;1.10;;;7.80;92.50;;;;;;4657946;30;20046;-83
2022/02/02 07:32:08;;;;;;;7.50;1.48;;;7.80;92.50;;;;;;4670647;30;20346;-83
2022/02/02 07:34:49;;;;;;;10.87;1.50;;;7.80;92.40;;;;;;4670456;30;20035;-83
2022/02/02 07:37:28;;;;;;;7.70;1.50;;;7.80;92.30;;;;;;4671676;30;20042;-83
2022/02/02 07:39:59;;;;;;;5.65;1.30;;;7.80;92.30;;;;;;4655344;30;20138;-83
2022/02/02 07:42:27;;;;;;;8.30;1.73;;;7.90;92.10;;;;;;4669051;30;20048;-83
2022/02/02 07:45:05;;;;;;;19.02;1.75;;;7.90;91.80;;;;;;4657838;30;20313;-82
2022/02/02 07:47:34;;;;;;;10.68;1.80;;;7.90;91.70;;;;;;4643187;30;20311;-83
2022/02/02 07:50:03;;;;;;;7.38;1.30;;;8.00;91.60;;;;;;4643613;30;20051;-83
2022/02/02 07:52:30;;;;;;;11.35;1.85;;;8.00;91.40;;;;;;4671886;30;20109;-83
2022/02/02 07:55:00;;;;;;;9.95;2.15;;;8.00;91.00;;;;;;4656637;30;20039;-83
2022/02/02 07:57:28;;;;;;;6.72;1.80;;;8.10;91.20;;;;;;4684762;30;20122;-82
2022/02/02 07:59:58;;;;;;;9.35;2.25;;;8.10;90.60;;;;;;4723185;30;20040;-83
2022/02/02 08:04:57;;;;;;;11.10;1.50;;;8.20;91.10;;;;;;4728635;30;20035;-83
2022/02/02 08:07:29;;;;;;;7.20;1.65;;;8.20;90.60;;;;;;4699537;30;20333;-83
2022/02/02 08:10:06;;;;;;;6.88;1.98;;;8.20;90.70;;;;;;4736932;30;20442;-83
2022/02/02 08:12:44;;;;;;;8.02;1.45;;;8.30;90.00;;;;;;4716213;30;20041;-83
2022/02/02 08:15:12;;;;;;;7.43;1.67;;;8.50;90.20;;;;;;4727619;30;20021;-83
2022/02/02 08:17:39;;;;;;;9.38;1.73;;;8.60;89.60;;;;;;4725359;30;20045;-83
2022/02/02 08:20:06;;;;;;;3.35;1.40;;;8.50;90.30;;;;;;4727967;30;20045;-84
2022/02/02 08:22:32;;;;;;;;;;;8.40;91.60;;;;;;4728524;30;20303;-84
2022/02/02 08:24:58;;;;;;;9.83;1.63;;;8.20;93.20;;;;;;4712912;30;19915;-84
2022/02/02 08:27:24;;;;;;;8.75;1.83;;;8.10;93.80;;;;;;4713991;30;20045;-84
2022/02/02 08:29:50;;;;;;;8.17;1.40;;;8.00;94.00;;;;;;4712425;30;20049;-84
2022/02/02 08:32:16;;;;;;;6.45;1.80;;;8.00;94.30;;;;;;4727832;30;20033;-84
2022/02/02 08:34:48;;;;;;;9.02;1.52;;;8.10;94.40;;;;;;4728015;30;20037;-85
2022/02/02 08:37:14;;;;;;;8.05;1.60;;;8.10;94.30;;;;;;4728157;30;20044;-85
2022/02/02 08:40:00;;;;;;;6.50;1.20;;;8.10;94.70;;;;;;4727508;30;20045;-84
2022/02/02 08:42:30;;;;;;;8.07;2.00;;;8.20;94.50;;;;;;4718520;30;20036;-84
2022/02/02 08:45:16;;;;;;;4.13;1.45;;;8.20;94.70;;;;;;4711826;30;20041;-84
2022/02/02 08:47:48;;;;;;;6.60;1.42;;;8.10;94.60;;;;;;4723770;30;20045;-84
2022/02/02 08:50:14;;;;;;;5.38;1.27;;;8.10;94.70;;;;;;4713457;30;20052;-84
2022/02/02 08:52:51;;;;;;;8.82;1.88;;;8.10;95.00;;;;;;4726760;30;20029;-83
2022/02/02 08:55:22;;;;;;;4.15;1.20;;;8.10;95.20;;;;;;4722795;30;20057;-83
2022/02/02 08:58:18;;;;;;;7.47;1.80;;;8.00;95.50;;;;;;4716844;30;20044;-83
2022/02/02 09:00:42;;;;;;;10.07;2.15;;;7.90;96.20;;;;;;4730895;30;20047;-82
2022/02/02 09:05:52;;;;;;;6.53;2.13;;;7.90;96.70;;;;;;4724586;30;20325;-82
2022/02/02 09:08:22;;;;;;;5.13;1.83;;;7.80;96.90;;;;;;4722017;30;20048;-82
2022/02/02 09:24:22;;;;;;;4.68;2.00;;;7.90;97.20;;;;;;4723186;30;20061;-84
2022/02/02 09:32:36;;;;;;;3.90;1.80;;;7.80;97.10;;;;;;4725151;30;20295;-83
2022/02/02 09:35:02;;;;;;;4.78;1.35;;;7.80;97.20;;;;;;4726477;30;20075;-84
2022/02/02 09:37:28;;;;;;;3.55;1.25;;;7.90;96.40;;;;;;4728734;30;20543;-83
2022/02/02 09:40:10;;;;;;;3.72;1.17;;;7.90;95.80;;;;;;4724162;30;20075;-83
2022/02/02 09:42:35;;;;;;;3.10;1.17;;;8.00;95.20;;;;;;4739002;30;20104;-82
2022/02/02 09:45:08;;;;;;;5.20;1.40;;;8.00;94.80;;;;;;4724285;30;20041;-83
2022/02/02 09:47:42;;;;;;;8.40;1.40;;;8.10;94.60;;;;;;4734897;30;20060;-82
2022/02/02 09:50:18;;;;;;;3.45;1.00;;;8.20;94.60;;;;;;4721924;30;20044;-82
2022/02/02 09:52:52;;;;;;;5.15;1.17;;;8.40;93.60;;;;;;4719949;30;20234;-82
2022/02/02 09:55:47;;;;;;;7.93;1.50;;;8.40;91.50;;;;;;4719022;30;20044;-83
2022/02/02 10:01:40;;;;;;;7.47;1.40;;;8.60;89.50;;;;;;4695799;30;20253;-82
2022/02/02 10:07:50;;;;;;;4.00;1.02;;;8.80;85.90;;;;;;4678975;30;20064;-82
2022/02/02 10:13:22;;;;;;;4.97;1.48;;;8.90;82.30;;;;;;4677492;30;20056;-83
2022/02/02 10:15:49;;;;;;;5.13;1.60;;;8.90;83.00;;;;;;4659613;30;20065;-83
2022/02/02 10:18:20;;;;;;;;;;;8.90;82.30;;;;;;4690850;30;20038;-82
2022/02/02 10:20:51;;;;;;;6.63;1.52;;;9.00;82.20;;;;;;4668066;30;19915;-82
2022/02/02 10:23:28;;;;;;;5.78;1.38;;;9.20;80.70;;;;;;4690400;30;20042;-82
2022/02/02 10:25:59;;;;;;;5.35;1.13;;;9.40;80.00;;;;;;4688341;30;20041;-83
2022/02/02 10:28:30;;;;;;;10.07;2.05;;;9.70;81.10;;;;;;4664346;30;20046;-84
2022/02/02 10:31:01;;;;;;;9.65;1.55;;;9.90;79.50;;;;;;4677074;30;20096;-84
2022/02/02 10:33:29;;;;;;;4.72;1.30;;;9.80;78.90;;;;;;4673085;30;20050;-83
2022/02/02 10:36:10;;;;;;;4.47;1.20;;;9.70;79.50;;;;;;4660076;30;20180;-83
2022/02/02 10:39:12;;;;;;;6.20;1.60;;;9.60;78.90;;;;;;4715078;30;20053;-84
2022/02/02 10:42:00;;;;;;;10.88;2.28;;;9.50;79.50;;;;;;4715729;30;20428;-84
2022/02/02 10:44:34;;;;;;;8.40;2.17;;;9.50;80.50;;;;;;4727260;30;20072;-83
2022/02/02 10:47:18;;;;;;;7.68;1.58;;;9.40;79.70;;;;;;4700098;30;20053;-83
2022/02/02 10:50:01;;;;;;;7.50;1.58;;;9.30;80.20;;;;;;4720285;30;20049;-83
2022/02/02 11:06:41;;;;;;;7.85;2.45;;;9.60;80.40;;;;;;4697129;30;20111;-82
2022/02/02 11:09:12;;;;;;;7.20;1.63;;;9.60;80.10;;;;;;4724176;30;20053;-83
2022/02/02 11:11:43;;;;;;;4.93;2.00;;;9.60;80.60;;;;;;4723796;30;20049;-83
2022/02/02 11:14:33;;;;;;;6.28;1.35;;;9.50;81.40;;;;;;4717042;30;20048;-83
2022/02/02 11:17:23;;;;;;;6.72;1.50;;;9.50;83.10;;;;;;4750558;30;20039;-83
2022/02/02 11:19:52;;;;;;;6.55;1.35;;;9.30;88.60;;;;;;4755361;30;20127;-84
2022/02/02 11:22:30;;;;;;;6.35;1.27;;;9.00;90.60;;;;;;4753100;30;20052;-83
2022/02/02 11:24:59;;;;;;;3.80;1.10;;;8.70;91.00;;;;;;4728696;30;20052;-84
2022/02/02 11:27:42;;;;;;;6.97;1.27;;;8.40;91.10;;;;;;4742837;30;20379;-84
2022/02/02 11:30:23;;;;;;;2.88;1.02;;;8.10;92.30;;;;;;4723373;30;20058;-84
2022/02/02 11:32:53;;;;;;;2.97;0.70;;;7.90;93.30;;;;;;4727715;30;20103;-85
2022/02/02 11:36:00;;;;;;;6.57;1.25;;;7.90;93.70;;;;;;4725141;30;20037;-83
2022/02/02 11:38:29;;;;;;;1.40;0.60;;;7.90;93.70;;;;;;4710719;30;20041;-82
2022/02/02 11:41:11;;;;;;;5.10;0.85;;;8.00;94.00;;;;;;4710638;30;20049;-82
2022/02/02 11:44:14;;;;;;;5.75;1.58;;;8.10;93.50;;;;;;4685953;30;20128;-84
2022/02/02 11:49:57;;;;;;;10.40;1.40;;;8.30;93.20;;;;;;4678669;30;20038;-83
2022/02/02 11:52:44;;;;;;;7.35;1.65;;;8.40;93.00;;;;;;4661164;30;20380;-83
2022/02/02 11:55:10;;;;;;;2.78;1.10;;;8.50;93.10;;;;;;4655075;30;20046;-83
2022/02/02 11:57:58;;;;;;;7.18;1.60;;;8.60;93.00;;;;;;4639036;30;20111;-84
2022/02/02 12:08:35;;;;;;;3.50;1.15;;;9.00;91.60;;;;;;4647838;30;20114;-83
2022/02/02 12:55:45;;;;;;;3.03;1.00;;;9.20;90.00;;;;;;4723966;30;20035;-83
2022/02/02 12:57:44;;;;;;;7.68;1.35;;;9.20;87.10;;;;;;4725217;30;20280;-83
2022/02/02 13:00:20;;;;;;;3.38;1.00;;;9.30;86.60;;;;;;4727365;30;20049;-84
2022/02/02 13:02:47;;;;;;;4.28;0.90;;;9.20;85.60;;;;;;4726691;30;20120;-84
2022/02/02 13:05:15;;;;;;;4.95;1.25;;;9.20;86.60;;;;;;4703272;30;20120;-84
2022/02/02 13:07:42;;;;;;;2.05;0.63;;;9.20;85.70;;;;;;4725327;30;20092;-84
2022/02/02 13:10:12;;;;;;;3.78;1.00;;;9.10;85.60;;;;;;4739391;30;20048;-83
2022/02/02 13:23:28;;;;;;;4.95;0.80;;;9.00;83.50;;;;;;4736559;30;20036;-84
2022/02/02 13:26:05;;;;;;;3.72;0.88;;;9.00;84.40;;;;;;4740662;30;20057;-84
2022/02/02 13:28:37;;;;;;;1.85;0.73;;;9.20;84.60;;;;;;4741054;30;20049;-84
2022/02/02 13:31:03;;;;;;;2.55;0.93;;;9.20;83.10;;;;;;4713497;30;20233;-84
2022/02/02 13:33:39;;;;;;;2.83;0.85;;;9.20;82.90;;;;;;4727764;30;20103;-84
2022/02/02 13:36:44;;;;;;;2.75;0.80;;;9.10;84.00;;;;;;4727720;30;20047;-84
2022/02/02 14:09:04;;;;;;;4.80;1.25;;;9.00;80.70;;;;;;4727572;30;20049;-84
2022/02/02 14:33:05;;;;;;;7.40;1.98;;;9.20;75.70;;;;;;4735392;30;20206;-82
2022/02/02 14:35:33;;;;;;;12.68;1.50;;;9.20;76.20;;;;;;4710459;30;20069;-83
2022/02/02 14:38:00;;;;;;;11.07;2.13;;;9.20;75.40;;;;;;4723068;30;20375;-84
2022/02/02 14:40:41;;;;;;;5.40;1.67;;;9.10;76.20;;;;;;4731841;30;20045;-83
2022/02/02 14:43:08;;;;;;;12.77;2.95;;;9.10;76.90;;;;;;4713095;30;20049;-85
2022/02/02 14:45:38;;;;;;;;;;;9.00;77.20;;;;;;4724224;30;20128;-85
2022/02/02 14:48:11;;;;;;;6.47;2.20;;;9.00;76.90;;;;;;4723509;30;19969;-82
2022/02/02 14:50:55;;;;;;;10.55;2.33;;;9.00;76.10;;;;;;4725464;30;20052;-82
2022/02/02 14:53:34;;;;;;;7.07;1.60;;;9.00;76.70;;;;;;4727458;30;20037;-82
2022/02/02 15:28:01;;;;;;;4.57;1.30;;;8.20;84.60;;;;;;4721759;30;20057;-83
2022/02/02 15:30:32;;;;;;;6.30;1.50;;;8.20;85.40;;;;;;4718678;30;20321;-82
2022/02/02 15:33:00;;;;;;;12.43;1.70;;;8.20;85.50;;;;;;4698767;30;20176;-82
2022/02/02 15:35:28;;;;;;;7.72;1.83;;;8.10;86.00;;;;;;4709454;30;20051;-79
2022/02/02 15:40:29;;;;;;;6.18;1.20;;;8.10;86.10;;;;;;4694130;30;20048;-82
2022/02/02 15:59:07;;;;;;;7.47;2.03;;;7.90;89.50;;;;;;4739422;30;20324;-82
2022/02/02 16:03:59;;;;;;;4.70;1.60;;;7.70;90.40;;;;;;4721193;30;20053;-82
2022/02/02 16:06:27;;;;;;;4.13;1.20;;;7.60;89.80;;;;;;4723498;30;20088;-82
2022/02/02 16:09:19;;;;;;;9.48;1.73;;;7.50;90.30;;;;;;4723989;30;20045;-82
2022/02/02 16:11:52;;;;;;;6.05;1.48;;;7.50;90.40;;;;;;4698725;30;20359;-82
2022/02/02 16:14:25;;;;;;;5.47;1.40;;;7.50;90.60;;;;;;4725822;30;20048;-81
2022/02/02 16:19:29;;;;;;;7.60;1.75;;;7.40;90.50;;;;;;4712009;30;20049;-81
2022/02/02 16:25:04;;;;;;;6.28;1.63;;;7.30;90.30;;;;;;4715635;30;20056;-82
2022/02/02 16:36:01;;;;;;;9.48;2.88;;;7.20;90.30;;;;;;4695569;30;20085;-83
2022/02/02 16:38:32;;;;;;;7.50;2.00;;;7.20;90.20;;;;;;4697460;30;20046;-83
2022/02/02 16:40:58;;;;;;;8.98;1.88;;;7.20;89.90;;;;;;4696106;30;20079;-82
2022/02/02 16:43:24;;;;;;;5.63;1.15;;;7.20;89.80;;;;;;4677537;30;20065;-83
2022/02/02 16:45:53;;;;;;;8.98;2.25;;;7.20;89.50;;;;;;4705485;30;20257;-83
2022/02/02 16:48:23;;;;;;;9.32;2.03;;;7.20;89.80;;;;;;4676930;30;20080;-83
2022/02/02 16:50:53;;;;;;;11.43;2.47;;;7.10;89.60;;;;;;4677045;30;20061;-82
2022/02/02 17:31:00;;;;;;;4.57;1.23;;;6.90;87.00;;;;;;4724825;30;20041;-82
2022/02/02 17:33:42;;;;;;;5.03;1.15;;;6.90;86.30;;;;;;4726832;30;20037;-82
2022/02/02 17:39:12;;;;;;;6.07;1.48;;;6.90;86.20;;;;;;4726563;30;20072;-83
2022/02/02 18:19:14;;;;;;;8.45;1.42;;;7.00;83.50;;;;;;4609317;31;20063;-83
2022/02/02 18:21:39;;;;;;;6.65;1.45;;;7.00;83.70;;;;;;4676463;30;20057;-83
2022/02/02 18:24:36;;;;;;;7.28;1.70;;;7.00;83.80;;;;;;4705185;30;20084;-83
2022/02/02 18:34:53;;;;;;;12.20;2.10;;;7.00;84.10;;;;;;4684732;30;20345;-84
2022/02/02 18:48:27;;;;;;;4.38;1.50;;;7.00;84.40;;;;;;4698375;30;20042;-82
2022/02/02 18:51:01;;;;;;;3.53;1.25;;;7.10;84.20;;;;;;4685405;30;20081;-82
2022/02/02 18:59:11;;;;;;;9.40;2.35;;;7.00;86.00;;;;;;4638836;30;20026;-82
2022/02/02 19:02:05;;;;;;;5.78;1.48;;;7.00;85.50;;;;;;4654603;30;20334;-82
2022/02/02 19:55:38;;;;;;;10.27;2.00;;;6.50;84.70;;;;;;4746598;30;20033;-83
2022/02/02 20:06:07;;;;;;;11.48;2.33;;;6.50;83.90;;;;;;4722403;30;20036;-84
2022/02/02 20:11:30;;;;;;;8.30;1.92;;;6.40;83.70;;;;;;4693501;30;20260;-83
2022/02/02 20:13:56;;;;;;;10.88;1.83;;;6.40;84.00;;;;;;4698023;30;20336;-84
2022/02/02 20:16:22;;;;;;;7.68;2.15;;;6.40;84.10;;;;;;4716829;30;20218;-84
2022/02/02 20:18:50;;;;;;;6.20;1.77;;;6.40;84.20;;;;;;4712725;30;20068;-84
2022/02/02 20:21:21;;;;;;;11.15;2.53;;;6.40;84.30;;;;;;4721497;30;20075;-84
2022/02/02 20:23:49;;;;;;;8.35;2.28;;;6.40;84.40;;;;;;4710842;30;20037;-84
2022/02/02 20:26:17;;;;;;;9.80;2.45;;;6.30;84.60;;;;;;4707462;30;20040;-84
2022/02/02 20:28:44;;;;;;;9.27;1.88;;;6.30;84.80;;;;;;4701703;30;20091;-84
2022/02/02 20:31:10;;;;;;;;;;;6.30;84.80;;;;;;4701445;30;20045;-83
2022/02/02 20:33:37;;;;;;;13.63;2.20;;;6.30;84.60;;;;;;4712791;30;19921;-82
2022/02/02 20:36:03;;;;;;;6.40;1.88;;;6.30;84.80;;;;;;4706562;30;20041;-83
2022/02/02 20:38:29;;;;;;;11.93;2.22;;;6.20;84.90;;;;;;4718576;30;20064;-83
2022/02/02 20:40:55;;;;;;;9.77;2.30;;;6.30;85.30;;;;;;4698884;30;20237;-83
